Time;durP1;ratioP1;P1;durP2;ratioP2;P2;SDS_P1;SDS_P2;PMS_P1;PMS_P2;Temp;Humidity;BMP_temperature;BMP_pressure;BME280_temperature;BME280_humidity;BME280_pressure;Samples;Min_cycle;Max_cycle;Signal;HPM_P1;HPM_P2
2021/12/31 00:01:10;;;;;;;;;;;12.20;99.90;;;;;;5027059;28;19944;-78
2021/12/31 00:03:35;;;;;;;;;;;12.20;99.90;;;;;;5029272;28;19925;-78
2021/12/31 00:06:01;;;;;;;;;;;12.20;99.90;;;;;;4997551;28;19975;-78
2021/12/31 00:08:26;;;;;;;;;;;12.20;99.90;;;;;;5014471;28;20024;-80
2021/12/31 00:10:56;;;;;;;;;;;12.20;99.90;;;;;;4998067;28;19922;-79
2021/12/31 00:13:22;;;;;;;;;;;12.30;99.90;;;;;;4997063;28;20025;-79
2021/12/31 00:15:47;;;;;;;;;;;12.30;99.90;;;;;;5030314;28;19925;-79
2021/12/31 00:18:13;;;;;;;;;;;12.30;99.90;;;;;;5047242;28;19928;-80
2021/12/31 00:20:40;;;;;;;;;;;12.30;99.90;;;;;;4997540;28;20406;-80
2021/12/31 00:23:08;;;;;;;;;;;12.30;99.90;;;;;;5030085;28;19932;-79
2021/12/31 00:25:35;;;;;;;;;;;12.30;99.90;;;;;;5045742;28;19922;-79
2021/12/31 00:28:00;;;;;;;;;;;12.30;99.90;;;;;;5013561;28;19968;-79
2021/12/31 00:30:26;;;;;;;;;;;12.30;99.90;;;;;;5030216;28;19922;-79
2021/12/31 00:32:52;;;;;;;;;;;12.30;99.90;;;;;;5029675;28;19937;-78
2021/12/31 00:35:17;;;;;;;;;;;12.30;99.90;;;;;;5030102;28;20385;-78
2021/12/31 00:37:43;;;;;;;;;;;12.30;99.90;;;;;;4997385;28;19984;-78
2021/12/31 00:40:10;;;;;;;;;;;12.30;99.90;;;;;;5046530;28;19928;-78
2021/12/31 00:42:35;;;;;;;;;;;12.30;99.90;;;;;;5029982;28;19929;-79
2021/12/31 00:45:01;;;;;;;;;;;12.30;99.90;;;;;;5046324;28;19921;-78
2021/12/31 00:47:27;;;;;;;;;;;12.30;99.90;;;;;;5046535;28;19925;-78
2021/12/31 00:49:52;;;;;;;;;;;12.40;99.90;;;;;;4996721;28;20036;-79
2021/12/31 00:52:18;;;;;;;;;;;12.40;99.90;;;;;;5029773;28;19929;-79
2021/12/31 00:54:44;;;;;;;;;;;12.40;99.90;;;;;;5013008;28;19921;-78
2021/12/31 00:57:09;;;;;;;;;;;12.40;99.90;;;;;;4997055;28;19952;-79
2021/12/31 00:59:35;;;;;;;;;;;12.40;99.90;;;;;;4996749;28;19963;-78
2021/12/31 01:02:03;;;;;;;;;;;12.40;99.90;;;;;;5013256;28;20062;-78
2021/12/31 01:04:30;;;;;;;;;;;12.40;99.90;;;;;;5028994;28;20056;-79
2021/12/31 01:06:57;;;;;;;;;;;12.40;99.90;;;;;;5013151;28;19932;-79
2021/12/31 01:09:23;;;;;;;;;;;12.30;99.90;;;;;;4996944;28;20400;-79
2021/12/31 01:11:49;;;;;;;;;;;12.40;99.90;;;;;;4996228;28;19925;-79
2021/12/31 01:14:26;;;;;;;;;;;12.40;99.90;;;;;;5013047;28;20412;-78
2021/12/31 01:16:57;;;;;;;;;;;12.40;99.90;;;;;;4993684;28;19921;-80
2021/12/31 01:21:52;;;;;;;;;;;12.40;99.90;;;;;;5044780;28;19921;-79
2021/12/31 01:24:19;;;;;;;;;;;12.40;99.90;;;;;;5045513;28;19988;-79
2021/12/31 01:26:44;;;;;;;;;;;12.40;99.90;;;;;;5012629;28;20016;-79
2021/12/31 01:29:10;;;;;;;;;;;12.40;99.90;;;;;;5029181;28;20008;-78
2021/12/31 01:31:35;;;;;;;;;;;12.40;99.90;;;;;;5012725;28;19922;-78
2021/12/31 01:34:01;;;;;;;;;;;12.40;99.90;;;;;;5029113;28;20012;-78
2021/12/31 01:36:27;;;;;;;;;;;12.40;99.90;;;;;;5045756;28;19922;-79
2021/12/31 01:38:52;;;;;;;;;;;12.50;99.90;;;;;;5028440;28;19973;-79
2021/12/31 01:41:19;;;;;;;;;;;12.50;99.90;;;;;;4995954;28;20011;-78
2021/12/31 01:43:45;;;;;;;;;;;12.50;99.90;;;;;;5045923;28;20278;-79
2021/12/31 01:46:11;;;;;;;;;;;12.50;99.90;;;;;;5011883;28;19932;-79
2021/12/31 01:48:59;;;;;;;;;;;12.50;99.90;;;;;;5012322;28;20404;-79
2021/12/31 01:51:24;;;;;;;;;;;12.50;99.90;;;;;;5011908;28;19926;-80
2021/12/31 01:53:49;;;;;;;;;;;12.40;99.90;;;;;;5028768;28;19921;-79
2021/12/31 01:56:15;;;;;;;;;;;12.40;99.90;;;;;;5028653;28;19925;-79
2021/12/31 01:58:41;;;;;;;;;;;12.40;99.90;;;;;;5028907;28;20016;-79
2021/12/31 02:01:10;;;;;;;;;;;12.40;99.90;;;;;;5027465;28;21187;-79
2021/12/31 02:03:37;;;;;;;;;;;12.40;99.90;;;;;;5028171;28;20329;-79
2021/12/31 02:06:03;;;;;;;;;;;12.40;99.90;;;;;;5012003;28;19928;-79
2021/12/31 02:08:29;;;;;;;;;;;12.40;99.90;;;;;;4995555;28;20004;-79
2021/12/31 02:10:54;;;;;;;;;;;12.40;99.90;;;;;;5011894;28;19921;-79
2021/12/31 02:13:20;;;;;;;;;;;12.40;99.90;;;;;;5027855;28;19925;-79
2021/12/31 02:15:46;;;;;;;;;;;12.40;99.90;;;;;;4995616;28;19968;-79
2021/12/31 02:18:11;;;;;;;;;;;12.40;99.90;;;;;;4995569;28;19921;-79
2021/12/31 02:20:44;;;;;;;;;;;12.40;99.90;;;;;;5011514;28;19979;-79
2021/12/31 02:23:17;;;;;;;;;;;12.40;99.90;;;;;;5011779;28;20012;-80
2021/12/31 02:25:42;;;;;;;;;;;12.40;99.90;;;;;;5044451;28;20020;-79
2021/12/31 02:28:08;;;;;;;;;;;12.40;99.90;;;;;;5012025;28;20250;-79
2021/12/31 02:30:34;;;;;;;;;;;12.40;99.90;;;;;;4995189;28;19921;-78
2021/12/31 02:32:59;;;;;;;;;;;12.40;99.90;;;;;;5044201;28;19922;-78
2021/12/31 02:35:25;;;;;;;;;;;12.40;99.90;;;;;;5011397;28;19929;-79
2021/12/31 02:37:51;;;;;;;;;;;12.40;99.90;;;;;;4995381;28;20012;-79
2021/12/31 02:40:17;;;;;;;;;;;12.50;99.90;;;;;;4995223;28;20016;-80
2021/12/31 02:42:43;;;;;;;;;;;12.40;99.90;;;;;;5027304;28;19929;-79
2021/12/31 02:45:10;;;;;;;;;;;12.50;99.90;;;;;;5027442;28;19948;-80
2021/12/31 02:47:44;;;;;;;;;;;12.50;99.90;;;;;;5028041;28;19929;-79
2021/12/31 02:50:13;;;;;;;;;;;12.50;99.90;;;;;;5027483;28;20297;-80
2021/12/31 02:52:39;;;;;;;;;;;12.50;99.90;;;;;;4994511;28;19968;-80
2021/12/31 02:55:05;;;;;;;;;;;12.50;99.90;;;;;;4994403;28;19921;-79
2021/12/31 02:57:30;;;;;;;;;;;12.50;99.90;;;;;;5011177;28;19927;-80
2021/12/31 02:59:56;;;;;;;;;;;12.60;99.90;;;;;;4994904;28;19971;-79
2021/12/31 03:02:24;;;;;;;;;;;12.60;99.90;;;;;;4995139;28;19925;-80
2021/12/31 03:04:51;;;;;;;;;;;12.60;99.90;;;;;;5026897;28;19925;-80
2021/12/31 03:07:17;;;;;;;;;;;12.60;99.90;;;;;;5011063;28;20397;-80
2021/12/31 03:09:46;;;;;;;;;;;12.60;99.90;;;;;;4995021;28;19921;-79
2021/12/31 03:12:13;;;;;;;;;;;12.60;99.90;;;;;;4995045;28;19948;-80
2021/12/31 03:14:39;;;;;;;;;;;12.60;99.90;;;;;;4994033;28;20382;-78
2021/12/31 03:17:06;;;;;;;;;;;12.60;99.90;;;;;;4994659;28;19922;-79
2021/12/31 03:19:32;;;;;;;;;;;12.60;99.90;;;;;;4994736;28;19984;-78
2021/12/31 03:21:57;;;;;;;;;;;12.60;99.90;;;;;;4994707;28;20393;-79
2021/12/31 03:24:23;;;;;;;;;;;12.60;99.90;;;;;;4994001;28;19925;-78
2021/12/31 03:26:48;;;;;;;;;;;12.60;99.90;;;;;;4994427;28;19975;-80
2021/12/31 03:29:13;;;;;;;;;;;12.70;99.90;;;;;;4994719;28;19936;-79
2021/12/31 03:31:39;;;;;;;;;;;12.70;99.90;;;;;;5011111;28;19922;-78
2021/12/31 03:34:04;;;;;;;;;;;12.70;99.90;;;;;;4994579;28;19921;-79
2021/12/31 03:36:30;;;;;;;;;;;12.70;99.90;;;;;;4994272;28;19922;-79
2021/12/31 03:38:55;;;;;;;;;;;12.70;99.90;;;;;;5027299;28;19921;-79
2021/12/31 03:41:21;;;;;;;;;;;12.70;99.90;;;;;;5027241;28;19921;-78
2021/12/31 03:43:46;;;;;;;;;;;12.70;99.90;;;;;;5010301;28;19975;-79
2021/12/31 03:46:12;;;;;;;;;;;12.70;99.90;;;;;;4994141;28;20107;-79
2021/12/31 03:48:37;;;;;;;;;;;12.60;99.90;;;;;;5010994;28;20381;-79
2021/12/31 03:51:03;;;;;;;;;;;12.70;99.90;;;;;;5027187;28;19922;-79
2021/12/31 03:53:28;;;;;;;;;;;12.60;99.90;;;;;;5010298;28;20328;-79
2021/12/31 03:55:54;;;;;;;;;;;12.60;99.90;;;;;;5010446;28;20306;-79
2021/12/31 03:58:19;;;;;;;;;;;12.60;99.90;;;;;;5010591;28;20020;-80
2021/12/31 04:00:46;;;;;;;;;;;12.60;99.90;;;;;;5010669;28;19922;-79
2021/12/31 04:03:12;;;;;;;;;;;12.60;99.90;;;;;;5013089;28;19921;-79
2021/12/31 04:05:41;;;;;;;;;;;12.60;99.90;;;;;;4997384;28;19939;-79
2021/12/31 04:08:07;;;;;;;;;;;12.60;99.90;;;;;;5014303;28;19945;-79
2021/12/31 04:10:33;;;;;;;;;;;12.50;99.90;;;;;;5030525;28;20378;-79
2021/12/31 04:12:58;;;;;;;;;;;12.50;99.90;;;;;;5014130;28;19925;-80
2021/12/31 04:15:24;;;;;;;;;;;12.50;99.90;;;;;;4997363;28;19928;-79
2021/12/31 04:17:49;;;;;;;;;;;12.60;99.90;;;;;;4998023;28;19922;-79
2021/12/31 04:20:20;;;;;;;;;;;12.60;99.90;;;;;;4997439;28;20429;-79
2021/12/31 04:22:53;;;;;;;;;;;12.60;99.90;;;;;;5030676;28;19922;-79
2021/12/31 04:25:18;;;;;;;;;;;12.60;99.90;;;;;;5030112;28;19925;-79
2021/12/31 04:27:44;;;;;;;;;;;12.60;99.90;;;;;;4997819;28;19953;-78
2021/12/31 04:30:10;;;;;;;;;;;12.60;99.90;;;;;;5029999;28;19928;-79
2021/12/31 04:32:35;;;;;;;;;;;12.60;99.90;;;;;;4997269;28;19969;-79
2021/12/31 04:35:01;;;;;;;;;;;12.60;99.90;;;;;;4997192;28;19927;-79
2021/12/31 04:37:26;;;;;;;;;;;12.60;99.90;;;;;;4997065;28;19921;-79
2021/12/31 04:39:51;;;;;;;;;;;12.60;99.90;;;;;;5029909;28;19927;-78
2021/12/31 04:42:17;;;;;;;;;;;12.60;99.90;;;;;;5013757;28;20404;-79
2021/12/31 04:44:43;;;;;;;;;;;12.60;99.90;;;;;;5046109;28;20408;-79
2021/12/31 04:47:08;;;;;;;;;;;12.60;99.90;;;;;;4997149;28;20381;-79
2021/12/31 04:49:34;;;;;;;;;;;12.60;99.90;;;;;;5013071;28;19929;-79
2021/12/31 04:51:59;;;;;;;;;;;12.60;99.90;;;;;;4997053;28;19921;-79
2021/12/31 04:54:25;;;;;;;;;;;12.60;99.90;;;;;;5029641;28;20015;-79
2021/12/31 04:56:53;;;;;;;;;;;12.60;99.90;;;;;;5013056;28;20036;-79
2021/12/31 04:59:19;;;;;;;;;;;12.60;99.90;;;;;;4996704;28;19925;-79
2021/12/31 05:01:44;;;;;;;;;;;12.60;99.90;;;;;;5045162;28;19927;-79
2021/12/31 05:04:09;;;;;;;;;;;12.60;99.90;;;;;;5029280;28;19926;-79
2021/12/31 05:06:37;;;;;;;;;;;12.60;99.90;;;;;;5046359;28;20008;-80
2021/12/31 05:09:03;;;;;;;;;;;12.60;99.90;;;;;;5029566;28;19937;-79
2021/12/31 05:11:28;;;;;;;;;;;12.60;99.90;;;;;;5013138;28;19944;-79
2021/12/31 05:13:53;;;;;;;;;;;12.60;99.90;;;;;;5027990;28;19968;-79
2021/12/31 05:16:19;;;;;;;;;;;12.60;99.90;;;;;;5046171;28;19929;-79
2021/12/31 05:18:44;;;;;;;;;;;12.70;99.90;;;;;;5046390;28;19921;-79
2021/12/31 05:21:10;;;;;;;;;;;12.60;99.90;;;;;;5029327;28;19929;-79
2021/12/31 05:23:35;;;;;;;;;;;12.60;99.90;;;;;;4996040;28;20381;-79
2021/12/31 05:26:01;;;;;;;;;;;12.60;99.90;;;;;;5029178;28;19994;-80
2021/12/31 05:28:26;;;;;;;;;;;12.50;99.90;;;;;;5012696;28;20409;-79
2021/12/31 05:30:52;;;;;;;;;;;12.40;99.90;;;;;;5029275;28;19929;-79
2021/12/31 05:33:17;;;;;;;;;;;12.40;99.90;;;;;;5011915;28;19927;-80
2021/12/31 05:35:42;;;;;;;;;;;12.40;99.90;;;;;;5029089;28;19928;-79
2021/12/31 05:38:08;;;;;;;;;;;12.30;99.90;;;;;;4996169;28;20041;-79
2021/12/31 05:40:34;;;;;;;;;;;12.30;99.90;;;;;;5012494;28;19926;-79
2021/12/31 05:43:00;;;;;;;;;;;12.20;99.90;;;;;;5028258;28;20484;-78
2021/12/31 05:45:25;;;;;;;;;;;12.20;99.90;;;;;;5012191;28;20097;-80
2021/12/31 05:47:51;;;;;;;;;;;12.10;99.90;;;;;;5028717;28;19921;-79
2021/12/31 05:50:28;;;;;;;;;;;12.10;99.90;;;;;;4996270;28;19922;-79
2021/12/31 05:52:54;;;;;;;;;;;12.10;99.90;;;;;;4995688;28;19921;-79
2021/12/31 05:55:20;;;;;;;;;;;12.10;99.90;;;;;;5045869;28;19964;-78
2021/12/31 05:57:45;;;;;;;;;;;12.00;99.90;;;;;;5028299;28;20015;-79
2021/12/31 06:00:11;;;;;;;;;;;12.10;99.90;;;;;;5012517;28;20385;-79
2021/12/31 06:02:36;;;;;;;;;;;12.10;99.90;;;;;;5028169;28;20348;-79
2021/12/31 06:05:02;;;;;;;;;;;12.20;99.90;;;;;;4995501;28;19972;-79
2021/12/31 06:07:27;;;;;;;;;;;12.20;99.90;;;;;;4995443;28;19929;-79
2021/12/31 06:09:53;;;;;;;;;;;12.10;99.90;;;;;;5012111;28;19929;-79
2021/12/31 06:12:18;;;;;;;;;;;12.10;99.90;;;;;;5045071;28;19921;-80
2021/12/31 06:14:44;;;;;;;;;;;12.10;99.90;;;;;;5028164;28;20309;-79
2021/12/31 06:17:11;;;;;;;;;;;12.10;99.90;;;;;;4995184;28;19921;-79
2021/12/31 06:19:38;;;;;;;;;;;12.10;99.90;;;;;;5028601;28;20227;-79
2021/12/31 06:22:03;;;;;;;;;;;12.00;99.90;;;;;;5027972;28;19984;-81
2021/12/31 06:24:29;;;;;;;;;;;12.10;99.90;;;;;;5027662;28;19953;-79
2021/12/31 06:26:55;;;;;;;;;;;12.10;99.90;;;;;;4994881;28;19922;-79
2021/12/31 06:29:20;;;;;;;;;;;12.10;99.90;;;;;;4995414;28;20093;-79
2021/12/31 06:31:46;;;;;;;;;;;12.10;99.90;;;;;;5028098;28;19921;-79
2021/12/31 06:34:11;;;;;;;;;;;12.10;99.90;;;;;;5027684;28;19982;-79
2021/12/31 06:36:37;;;;;;;;;;;12.10;99.90;;;;;;5027630;28;20381;-79
2021/12/31 06:39:03;;;;;;;;;;;12.00;99.90;;;;;;5028037;28;19968;-79
2021/12/31 06:41:29;;;;;;;;;;;12.10;99.90;;;;;;5027801;28;19928;-80
2021/12/31 06:43:55;;;;;;;;;;;12.00;99.90;;;;;;5011118;28;19930;-79
2021/12/31 06:46:20;;;;;;;;;;;12.00;99.90;;;;;;4994743;28;19922;-79
2021/12/31 06:48:46;;;;;;;;;;;12.00;99.90;;;;;;4995312;28;20365;-79
2021/12/31 06:51:11;;;;;;;;;;;12.10;99.90;;;;;;5011726;28;19929;-79
2021/12/31 06:53:37;;;;;;;;;;;12.00;99.90;;;;;;5044179;28;19922;-80
2021/12/31 06:56:03;;;;;;;;;;;12.00;99.90;;;;;;4994951;28;19921;-79
2021/12/31 06:58:28;;;;;;;;;;;12.00;99.90;;;;;;5027628;28;19922;-79
2021/12/31 07:00:54;;;;;;;;;;;11.90;99.90;;;;;;5044409;28;19921;-79
2021/12/31 07:03:19;;;;;;;;;;;11.90;99.90;;;;;;5043636;28;20373;-79
2021/12/31 07:05:45;;;;;;;;;;;11.90;99.90;;;;;;5027137;28;19925;-79
2021/12/31 07:08:10;;;;;;;;;;;11.80;99.90;;;;;;5044410;28;20016;-80
2021/12/31 07:10:36;;;;;;;;;;;11.80;99.90;;;;;;5027721;28;19921;-78
2021/12/31 07:13:05;;;;;;;;;;;11.80;99.90;;;;;;5027255;28;20052;-78
2021/12/31 07:15:31;;;;;;;;;;;11.90;99.90;;;;;;5026175;28;19921;-81
2021/12/31 07:17:56;;;;;;;;;;;11.90;99.90;;;;;;5023767;28;19922;-81
2021/12/31 07:20:22;;;;;;;;;;;11.90;99.90;;;;;;5044003;28;20008;-81
2021/12/31 07:22:48;;;;;;;;;;;11.90;99.90;;;;;;4998065;28;20370;-81
2021/12/31 07:25:13;;;;;;;;;;;11.80;99.90;;;;;;4994915;28;19926;-79
2021/12/31 07:27:39;;;;;;;;;;;11.80;99.90;;;;;;5010693;28;20301;-81
2021/12/31 07:30:04;;;;;;;;;;;11.80;99.90;;;;;;5044609;28;19944;-81
2021/12/31 07:32:34;;;;;;;;;;;11.80;99.90;;;;;;5043798;28;19922;-80
2021/12/31 07:34:59;;;;;;;;;;;11.80;99.90;;;;;;5044908;28;19929;-80
2021/12/31 07:37:25;;;;;;;;;;;11.80;99.90;;;;;;5029326;28;19922;-80
2021/12/31 07:39:58;;;;;;;;;;;11.80;99.90;;;;;;5049126;28;19922;-80
2021/12/31 07:42:24;;;;;;;;;;;11.80;99.90;;;;;;5015402;28;19929;-80
2021/12/31 07:44:49;;;;;;;;;;;11.70;99.90;;;;;;4999007;28;20313;-78
2021/12/31 07:47:14;;;;;;;;;;;11.70;99.90;;;;;;4997785;28;19921;-79
2021/12/31 07:49:40;;;;;;;;;;;11.70;99.90;;;;;;5031884;28;20067;-80
2021/12/31 07:52:05;;;;;;;;;;;11.80;99.90;;;;;;5031432;28;19928;-79
2021/12/31 07:54:31;;;;;;;;;;;11.80;99.90;;;;;;5048183;28;19960;-79
2021/12/31 07:56:56;;;;;;;;;;;11.90;99.90;;;;;;5032041;28;20309;-78
2021/12/31 07:59:22;;;;;;;;;;;11.90;99.90;;;;;;5031493;28;19921;-80
2021/12/31 08:01:47;;;;;;;;;;;12.00;99.90;;;;;;5047782;28;19932;-79
2021/12/31 08:04:13;;;;;;;;;;;12.00;99.90;;;;;;5030843;28;19926;-79
2021/12/31 08:06:38;;;;;;;;;;;12.10;99.90;;;;;;5047712;28;19921;-79
2021/12/31 08:09:03;;;;;;;;;;;12.10;99.90;;;;;;5031211;28;20437;-78
2021/12/31 08:11:29;;;;;;;;;;;12.10;99.90;;;;;;4998386;28;19921;-79
2021/12/31 08:13:55;;;;;;;;;;;12.10;99.90;;;;;;4997888;28;19971;-78
2021/12/31 08:16:20;;;;;;;;;;;12.20;99.90;;;;;;5030798;28;19975;-78
2021/12/31 08:18:45;;;;;;;;;;;12.20;99.90;;;;;;5046866;28;20386;-80
2021/12/31 08:21:11;;;;;;;;;;;12.20;99.90;;;;;;5002290;28;20012;-80
2021/12/31 08:23:36;;;;;;;;;;;12.20;99.90;;;;;;4990079;28;19928;-78
2021/12/31 08:26:02;;;;;;;;;;;12.20;99.90;;;;;;4998044;28;19922;-81
2021/12/31 08:28:28;;;;;;;;;;;12.20;99.90;;;;;;4997920;28;19926;-79
2021/12/31 08:30:53;;;;;;;;;;;12.30;99.90;;;;;;5013969;28;20424;-80
2021/12/31 08:33:18;;;;;;;;;;;12.30;99.90;;;;;;4997115;28;20305;-80
2021/12/31 08:35:44;;;;;;;;;;;12.30;99.90;;;;;;5013427;28;19922;-83
2021/12/31 08:38:10;;;;;;;;;;;12.30;99.90;;;;;;5030544;28;19921;-84
2021/12/31 08:40:35;;;;;;;;;;;12.30;99.90;;;;;;5030216;28;19929;-84
2021/12/31 08:43:02;;;;;;;;;;;12.30;99.90;;;;;;5030101;28;20068;-82
2021/12/31 08:45:29;;;;;;;;;;;12.30;99.90;;;;;;4997887;28;20352;-82
2021/12/31 08:47:56;;;;;;;;;;;12.30;99.90;;;;;;4997144;28;19972;-82
2021/12/31 08:50:21;;;;;;;;;;;12.30;99.90;;;;;;4997070;28;19921;-83
2021/12/31 08:52:47;;;;;;;;;;;12.30;99.90;;;;;;5030689;28;19996;-82
2021/12/31 08:55:12;;;;;;;;;;;12.30;99.90;;;;;;5030128;28;19925;-83
2021/12/31 08:57:38;;;;;;;;;;;12.30;99.90;;;;;;5030561;28;19925;-82
2021/12/31 09:00:05;;;;;;;;;;;12.30;99.90;;;;;;4997438;28;19928;-82
2021/12/31 09:02:31;;;;;;;;;;;12.40;99.90;;;;;;4990601;28;19921;-83
2021/12/31 09:04:56;;;;;;;;;;;12.30;99.90;;;;;;5010220;28;19926;-82
2021/12/31 09:07:22;;;;;;;;;;;12.30;99.90;;;;;;4977842;28;20338;-83
2021/12/31 09:09:47;;;;;;;;;;;12.40;99.90;;;;;;5010111;28;20039;-82
2021/12/31 09:12:13;;;;;;;;;;;12.30;99.90;;;;;;4993758;28;19929;-82
2021/12/31 09:14:38;;;;;;;;;;;12.30;99.90;;;;;;4979089;28;20282;-82
2021/12/31 09:17:04;;;;;;;;;;;12.30;99.90;;;;;;5012021;28;19965;-82
2021/12/31 09:19:29;;;;;;;;;;;12.30;99.90;;;;;;5011434;28;19961;-83
2021/12/31 09:21:55;;;;;;;;;;;12.30;99.90;;;;;;4979941;28;19925;-82
2021/12/31 09:24:21;;;;;;;;;;;12.30;99.90;;;;;;5011361;28;19992;-82
2021/12/31 09:26:47;;;;;;;;;;;12.30;99.90;;;;;;5011630;28;19922;-81
2021/12/31 09:29:16;;;;;;;;;;;12.40;99.90;;;;;;5027540;28;19922;-82
2021/12/31 09:31:42;;;;;;;;;;;12.40;99.90;;;;;;5011544;28;20394;-83
2021/12/31 09:34:07;;;;;;;;;;;12.40;99.90;;;;;;5012281;28;19985;-82
2021/12/31 09:36:33;;;;;;;;;;;12.40;99.90;;;;;;4979527;28;20213;-83
2021/12/31 09:38:58;;;;;;;;;;;12.40;99.90;;;;;;5011070;28;20298;-82
2021/12/31 09:41:24;;;;;;;;;;;12.30;99.90;;;;;;5012773;28;20023;-82
2021/12/31 09:43:50;;;;;;;;;;;12.30;99.90;;;;;;5024556;28;19936;-83
2021/12/31 09:46:16;;;;;;;;;;;12.40;99.90;;;;;;4997057;28;19921;-82
2021/12/31 09:48:41;;;;;;;;;;;12.30;99.90;;;;;;4996030;28;19929;-81
2021/12/31 09:51:07;;;;;;;;;;;12.40;99.90;;;;;;5047276;28;19921;-79
2021/12/31 09:53:32;;;;;;;;;;;12.40;99.90;;;;;;5046549;28;19921;-81
2021/12/31 09:55:58;;;;;;;;;;;12.40;99.90;;;;;;5028224;28;19987;-82
2021/12/31 09:58:25;;;;;;;;;;;12.40;99.90;;;;;;4999515;28;19984;-83
2021/12/31 10:01:00;;;;;;;;;;;12.40;99.90;;;;;;4991502;28;20310;-81
2021/12/31 10:03:36;;;;;;;;;;;12.40;99.90;;;;;;4992502;28;20021;-83
2021/12/31 10:06:06;;;;;;;;;;;12.40;99.90;;;;;;5012822;28;20020;-82
2021/12/31 10:08:42;;;;;;;;;;;12.40;99.90;;;;;;4994458;28;20453;-84
2021/12/31 10:11:11;;;;;;;;;;;12.40;99.90;;;;;;5028512;28;19925;-82
2021/12/31 10:13:41;;;;;;;;;;;12.40;99.90;;;;;;5027069;28;19928;-80
2021/12/31 10:16:18;;;;;;;;;;;12.40;99.90;;;;;;4996222;28;19921;-83
2021/12/31 10:18:44;;;;;;;;;;;12.40;99.90;;;;;;5028414;28;19922;-85
2021/12/31 10:21:09;;;;;;;;;;;12.40;99.90;;;;;;5029308;28;20003;-82
2021/12/31 10:23:38;;;;;;;;;;;12.40;99.90;;;;;;4995743;28;19933;-81
2021/12/31 10:26:08;;;;;;;;;;;12.30;99.90;;;;;;5028017;28;19933;-81
2021/12/31 10:28:34;;;;;;;;;;;12.40;99.90;;;;;;5014188;28;19952;-81
2021/12/31 10:31:20;;;;;;;;;;;12.40;99.90;;;;;;5010412;28;19948;-81
2021/12/31 10:33:46;;;;;;;;;;;12.40;99.90;;;;;;5005377;28;19921;-79
2021/12/31 10:36:34;;;;;;;;;;;12.40;99.90;;;;;;4993113;28;19929;-80
2021/12/31 10:39:03;;;;;;;;;;;12.40;99.90;;;;;;4995025;28;20008;-79
2021/12/31 10:41:28;;;;;;;;;;;12.40;99.90;;;;;;4996450;28;19933;-79
2021/12/31 10:43:56;;;;;;;;;;;12.40;99.90;;;;;;4995574;28;19982;-80
2021/12/31 10:46:21;;;;;;;;;;;12.40;99.90;;;;;;5019658;28;19921;-80
2021/12/31 10:48:48;;;;;;;;;;;12.40;99.90;;;;;;5028083;28;19932;-85
2021/12/31 10:51:15;;;;;;;;;;;12.30;99.90;;;;;;5044904;28;20408;-85
2021/12/31 10:53:43;;;;;;;;;;;12.30;99.90;;;;;;4994924;28;19922;-83
2021/12/31 10:56:10;;;;;;;;;;;12.30;99.90;;;;;;4994726;28;20012;-84
2021/12/31 10:58:37;;;;;;;;;;;12.30;99.90;;;;;;5011282;28;19929;-86
2021/12/31 11:01:07;;;;;;;;;;;12.30;99.90;;;;;;5019694;28;19929;-84
2021/12/31 11:03:37;;;;;;;;;;;12.30;99.90;;;;;;5014853;28;19929;-82
2021/12/31 11:06:04;;;;;;;;;;;12.30;99.90;;;;;;5028534;28;19925;-84
2021/12/31 11:08:30;;;;;;;;;;;12.30;99.90;;;;;;5011673;28;19976;-84
2021/12/31 11:10:56;;;;;;;;;;;12.30;99.90;;;;;;4987312;28;20032;-83
2021/12/31 11:13:22;;;;;;;;;;;12.30;99.90;;;;;;4987461;28;20012;-88
2021/12/31 11:15:52;;;;;;;;;;;12.30;99.90;;;;;;5019617;28;19933;-84
2021/12/31 11:18:22;;;;;;;;;;;12.30;99.90;;;;;;4995945;28;19926;-85
2021/12/31 11:20:48;;;;;;;;;;;12.30;99.90;;;;;;5011993;28;19937;-83
2021/12/31 11:23:13;;;;;;;;;;;12.30;99.90;;;;;;5022643;28;19922;-83
2021/12/31 11:25:53;;;;;;;;;;;12.30;99.90;;;;;;4985658;28;19933;-83
2021/12/31 11:28:26;;;;;;;;;;;12.30;99.90;;;;;;5025938;28;19976;-83
2021/12/31 11:30:51;;;;;;;;;;;12.30;99.90;;;;;;5024830;28;19921;-83
2021/12/31 11:33:22;;;;;;;;;;;12.30;99.90;;;;;;5005223;28;19944;-82
2021/12/31 11:35:50;;;;;;;;;;;12.30;99.90;;;;;;4994432;28;19952;-81
2021/12/31 11:38:22;;;;;;;;;;;12.30;99.90;;;;;;4994025;28;19928;-84
2021/12/31 11:40:51;;;;;;;;;;;12.30;99.90;;;;;;5011043;28;20134;-84
2021/12/31 11:43:24;;;;;;;;;;;12.30;99.90;;;;;;5016664;28;20071;-85
2021/12/31 11:46:08;;;;;;;;;;;12.40;99.90;;;;;;5022737;28;20329;-84
2021/12/31 11:48:43;;;;;;;;;;;12.40;99.90;;;;;;5026384;28;19922;-81
2021/12/31 11:51:09;;;;;;;;;;;12.50;99.90;;;;;;4994275;28;19934;-83
2021/12/31 11:53:53;;;;;;;;;;;12.50;99.90;;;;;;5026497;28;19928;-82
2021/12/31 11:56:39;;;;;;;;;;;12.60;99.90;;;;;;4993372;28;19980;-81
2021/12/31 11:59:08;;;;;;;;;;;12.50;99.90;;;;;;5007794;28;20400;-82
2021/12/31 12:01:37;;;;;;;;;;;12.50;99.90;;;;;;5010240;28;19922;-83
2021/12/31 12:04:19;;;;;;;;;;;12.50;99.90;;;;;;5026412;28;19922;-83
2021/12/31 12:06:55;;;;;;;;;;;12.50;99.90;;;;;;5026620;28;19926;-83
2021/12/31 12:09:21;;;;;;;;;;;12.50;99.90;;;;;;5010950;28;19921;-82
2021/12/31 12:12:05;;;;;;;;;;;12.40;99.90;;;;;;5027459;28;19971;-82
2021/12/31 12:14:45;;;;;;;;;;;12.50;99.90;;;;;;4994316;28;20362;-83
2021/12/31 12:17:15;;;;;;;;;;;12.40;99.90;;;;;;5027128;28;19921;-82
2021/12/31 12:19:46;;;;;;;;;;;12.40;99.90;;;;;;5010247;28;19985;-83
2021/12/31 12:22:28;;;;;;;;;;;12.40;99.90;;;;;;4994117;28;19960;-83
2021/12/31 12:24:54;;;;;;;;;;;12.30;99.90;;;;;;5007461;28;19926;-83
2021/12/31 12:27:20;;;;;;;;;;;12.20;99.90;;;;;;4995876;28;19928;-83
2021/12/31 12:29:46;;;;;;;;;;;12.10;99.90;;;;;;4997551;28;19922;-84
2021/12/31 12:32:12;;;;;;;;;;;12.00;99.90;;;;;;5046394;28;19922;-83
2021/12/31 12:34:38;;;;;;;;;;;11.90;99.90;;;;;;5029981;28;19925;-82
2021/12/31 12:37:03;;;;;;;;;;;11.90;99.90;;;;;;5007596;28;19921;-82
2021/12/31 12:39:33;;;;;;;;;;;11.80;99.90;;;;;;4988609;28;19989;-82
2021/12/31 12:41:58;;;;;;;;;;;11.70;99.90;;;;;;4997446;28;19925;-83
2021/12/31 12:44:24;;;;;;;;;;;11.60;99.90;;;;;;4997431;28;20424;-82
2021/12/31 12:46:51;;;;;;;;;;;11.60;99.90;;;;;;4997100;28;19921;-83
2021/12/31 12:49:18;;;;;;;;;;;11.50;99.90;;;;;;4997478;28;19973;-83
2021/12/31 12:51:43;;;;;;;;;;;11.50;99.90;;;;;;5030030;28;19922;-83
2021/12/31 12:54:11;;;;;;;;;;;11.50;99.90;;;;;;5007747;28;19922;-83
2021/12/31 12:56:36;;;;;;;;;;;11.50;99.90;;;;;;4980635;28;19922;-84
2021/12/31 12:59:03;;;;;;;;;;;11.50;99.90;;;;;;4993230;28;20012;-84
2021/12/31 13:01:35;;;;;;;;;;;11.50;99.90;;;;;;4996919;28;19925;-84
2021/12/31 13:04:01;;;;;;;;;;;11.40;99.90;;;;;;5029451;28;19929;-83
2021/12/31 13:06:27;;;;;;;;;;;11.40;99.90;;;;;;5029945;28;19921;-82
2021/12/31 13:09:10;;;;;;;;;;;11.40;99.90;;;;;;5029958;28;19929;-83
2021/12/31 13:11:37;;;;;;;;;;;11.40;99.90;;;;;;5029203;28;19980;-82
2021/12/31 13:14:03;;;;;;;;;;;11.40;99.90;;;;;;4997214;28;20328;-81
2021/12/31 13:16:29;;;;;;;;;;;11.40;99.90;;;;;;5029236;28;19928;-80
2021/12/31 13:18:55;;;;;;;;;;;11.40;99.90;;;;;;4996889;28;19925;-81
2021/12/31 13:21:21;;;;;;;;;;;11.40;99.90;;;;;;5029547;28;20021;-85
2021/12/31 13:23:51;;;;;;;;;;;11.40;99.90;;;;;;5029401;28;19969;-87
2021/12/31 13:26:18;;;;;;;;;;;11.30;99.90;;;;;;5032153;28;19925;-86
2021/12/31 13:28:43;;;;;;;;;;;11.30;99.90;;;;;;5020918;28;20493;-85
2021/12/31 13:31:09;;;;;;;;;;;11.30;99.90;;;;;;5001060;28;19975;-88
2021/12/31 13:33:42;;;;;;;;;;;11.30;99.90;;;;;;4996984;28;20341;-84
2021/12/31 13:36:08;;;;;;;;;;;11.30;99.90;;;;;;5020703;28;19965;-85
2021/12/31 13:38:53;;;;;;;;;;;11.30;99.90;;;;;;4995949;28;19972;-84
2021/12/31 13:41:21;;;;;;;;;;;11.30;99.90;;;;;;5042888;28;19925;-82
2021/12/31 13:43:56;;;;;;;;;;;11.40;99.90;;;;;;5029283;28;19922;-85
2021/12/31 13:46:30;;;;;;;;;;;11.40;99.90;;;;;;5018765;28;20720;-83
2021/12/31 13:49:09;;;;;;;;;;;11.40;99.90;;;;;;5001634;28;20381;-82
2021/12/31 13:51:36;;;;;;;;;;;11.40;99.90;;;;;;5022862;28;19999;-84
2021/12/31 13:54:02;;;;;;;;;;;11.40;99.90;;;;;;5025189;28;20345;-84
2021/12/31 13:56:47;;;;;;;;;;;11.40;99.90;;;;;;4997062;28;20430;-83
2021/12/31 13:59:17;;;;;;;;;;;11.50;99.90;;;;;;5037640;28;19922;-85
2021/12/31 14:02:01;;;;;;;;;;;11.50;99.90;;;;;;5004321;28;19928;-84
2021/12/31 14:04:27;;;;;;;;;;;11.50;99.90;;;;;;4983220;28;20401;-86
2021/12/31 14:06:56;;;;;;;;;;;11.50;99.90;;;;;;4996142;28;19926;-84
2021/12/31 14:09:21;;;;;;;;;;;11.50;99.90;;;;;;5007328;28;19922;-82
2021/12/31 14:11:47;;;;;;;;;;;11.50;99.90;;;;;;4990778;28;20523;-82
2021/12/31 14:14:12;;;;;;;;;;;11.50;99.90;;;;;;5040139;28;19922;-84
2021/12/31 14:16:38;;;;;;;;;;;11.50;99.90;;;;;;4992749;28;19929;-84
2021/12/31 14:19:03;;;;;;;;;;;11.60;99.90;;;;;;5011319;28;19925;-83